sensor_id;sensor_type;location;lat;lon;timestamp;pressure;altitude;pressure_sealevel;temperature
76583;BMP280;65462;52.148;7.940;2023-03-13T00:01:22;99540.31;;;9.08
76583;BMP280;65462;52.148;7.940;2023-03-13T00:03:48;99542.63;;;9.09
76583;BMP280;65462;52.148;7.940;2023-03-13T00:06:14;99540.44;;;9.11
76583;BMP280;65462;52.148;7.940;2023-03-13T00:08:40;99537.47;;;9.13
76583;BMP280;65462;52.148;7.940;2023-03-13T00:11:10;99536.69;;;9.12
76583;BMP280;65462;52.148;7.940;2023-03-13T00:13:35;99531.75;;;9.11
76583;BMP280;65462;52.148;7.940;2023-03-13T00:16:03;99519.34;;;9.11
76583;BMP280;65462;52.148;7.940;2023-03-13T00:18:29;99520.44;;;9.10
76583;BMP280;65462;52.148;7.940;2023-03-13T00:21:02;99516.28;;;9.09
76583;BMP280;65462;52.148;7.940;2023-03-13T00:23:28;99506.19;;;9.11
76583;BMP280;65462;52.148;7.940;2023-03-13T00:26:05;99502.47;;;9.12
76583;BMP280;65462;52.148;7.940;2023-03-13T00:28:32;99503.63;;;9.15
76583;BMP280;65462;52.148;7.940;2023-03-13T00:31:04;99501.41;;;9.17
76583;BMP280;65462;52.148;7.940;2023-03-13T00:33:32;99492.34;;;9.14
76583;BMP280;65462;52.148;7.940;2023-03-13T00:36:01;99494.97;;;9.14
76583;BMP280;65462;52.148;7.940;2023-03-13T00:38:30;99496.09;;;9.13
76583;BMP280;65462;52.148;7.940;2023-03-13T00:41:04;99485.97;;;9.15
76583;BMP280;65462;52.148;7.940;2023-03-13T00:43:30;99480.34;;;9.17
76583;BMP280;65462;52.148;7.940;2023-03-13T00:45:55;99483.75;;;9.17
76583;BMP280;65462;52.148;7.940;2023-03-13T00:48:21;99477.38;;;9.18
76583;BMP280;65462;52.148;7.940;2023-03-13T00:50:46;99466.84;;;9.18
76583;BMP280;65462;52.148;7.940;2023-03-13T00:53:12;99470.69;;;9.21
76583;BMP280;65462;52.148;7.940;2023-03-13T00:55:37;99459.38;;;9.20
76583;BMP280;65462;52.148;7.940;2023-03-13T00:58:02;99462.47;;;9.22
76583;BMP280;65462;52.148;7.940;2023-03-13T01:00:27;99454.22;;;9.24
76583;BMP280;65462;52.148;7.940;2023-03-13T01:02:53;99455.38;;;9.26
76583;BMP280;65462;52.148;7.940;2023-03-13T01:05:18;99448.34;;;9.30
76583;BMP280;65462;52.148;7.940;2023-03-13T01:07:43;99445.59;;;9.27
76583;BMP280;65462;52.148;7.940;2023-03-13T01:10:09;99428.28;;;9.26
76583;BMP280;65462;52.148;7.940;2023-03-13T01:12:34;99440.03;;;9.28
76583;BMP280;65462;52.148;7.940;2023-03-13T01:15:00;99425.31;;;9.27
76583;BMP280;65462;52.148;7.940;2023-03-13T01:17:25;99418.16;;;9.28
76583;BMP280;65462;52.148;7.940;2023-03-13T01:19:50;99423.44;;;9.28
76583;BMP280;65462;52.148;7.940;2023-03-13T01:22:15;99403.91;;;9.29
76583;BMP280;65462;52.148;7.940;2023-03-13T01:24:41;99406.53;;;9.29
76583;BMP280;65462;52.148;7.940;2023-03-13T01:27:06;99403.03;;;9.25
76583;BMP280;65462;52.148;7.940;2023-03-13T01:29:31;99395.47;;;9.23
76583;BMP280;65462;52.148;7.940;2023-03-13T01:31:56;99394.34;;;9.24
76583;BMP280;65462;52.148;7.940;2023-03-13T01:34:22;99372.88;;;9.22
76583;BMP280;65462;52.148;7.940;2023-03-13T01:36:47;99368.69;;;9.21
76583;BMP280;65462;52.148;7.940;2023-03-13T01:39:15;99364.09;;;9.18
76583;BMP280;65462;52.148;7.940;2023-03-13T01:41:40;99348.56;;;9.13
76583;BMP280;65462;52.148;7.940;2023-03-13T01:44:19;99346.31;;;9.15
76583;BMP280;65462;52.148;7.940;2023-03-13T01:46:45;99342.19;;;9.14
76583;BMP280;65462;52.148;7.940;2023-03-13T01:51:44;99330.88;;;9.14
76583;BMP280;65462;52.148;7.940;2023-03-13T01:56:59;99307.16;;;9.14
76583;BMP280;65462;52.148;7.940;2023-03-13T01:59:28;99292.47;;;9.13
76583;BMP280;65462;52.148;7.940;2023-03-13T02:01:56;99298.06;;;9.11
76583;BMP280;65462;52.148;7.940;2023-03-13T02:04:23;99284.88;;;9.11
76583;BMP280;65462;52.148;7.940;2023-03-13T02:06:53;99267.53;;;9.10
76583;BMP280;65462;52.148;7.940;2023-03-13T02:09:23;99254.38;;;9.10
76583;BMP280;65462;52.148;7.940;2023-03-13T02:14:31;99242.81;;;9.15
76583;BMP280;65462;52.148;7.940;2023-03-13T02:16:57;99234.16;;;9.14
76583;BMP280;65462;52.148;7.940;2023-03-13T02:19:41;99226.25;;;9.14
76583;BMP280;65462;52.148;7.940;2023-03-13T02:24:58;99213.66;;;9.08
76583;BMP280;65462;52.148;7.940;2023-03-13T02:27:26;99192.94;;;9.06
76583;BMP280;65462;52.148;7.940;2023-03-13T02:29:52;99187.25;;;9.04
76583;BMP280;65462;52.148;7.940;2023-03-13T02:32:17;99186.84;;;9.02
76583;BMP280;65462;52.148;7.940;2023-03-13T02:34:44;99164.91;;;8.98
76583;BMP280;65462;52.148;7.940;2023-03-13T02:37:12;99151.75;;;8.98
76583;BMP280;65462;52.148;7.940;2023-03-13T02:39:42;99149.56;;;9.00
76583;BMP280;65462;52.148;7.940;2023-03-13T02:42:10;99140.53;;;9.01
76583;BMP280;65462;52.148;7.940;2023-03-13T02:44:40;99128.13;;;9.02
76583;BMP280;65462;52.148;7.940;2023-03-13T02:47:05;99128.91;;;9.02
76583;BMP280;65462;52.148;7.940;2023-03-13T02:49:31;99126.16;;;8.99
76583;BMP280;65462;52.148;7.940;2023-03-13T02:51:59;99117.84;;;8.97
76583;BMP280;65462;52.148;7.940;2023-03-13T02:54:33;99111.13;;;8.99
76583;BMP280;65462;52.148;7.940;2023-03-13T02:57:01;99107.41;;;9.00
76583;BMP280;65462;52.148;7.940;2023-03-13T02:59:27;99100.25;;;9.01
76583;BMP280;65462;52.148;7.940;2023-03-13T03:01:52;99099.16;;;9.02
76583;BMP280;65462;52.148;7.940;2023-03-13T03:04:20;99085.66;;;9.03
76583;BMP280;65462;52.148;7.940;2023-03-13T03:06:45;99082.59;;;9.01
76583;BMP280;65462;52.148;7.940;2023-03-13T03:09:11;99077.66;;;9.00
76583;BMP280;65462;52.148;7.940;2023-03-13T03:11:36;99075.13;;;9.03
76583;BMP280;65462;52.148;7.940;2023-03-13T03:14:03;99067.63;;;9.05
76583;BMP280;65462;52.148;7.940;2023-03-13T03:16:28;99060.47;;;9.06
76583;BMP280;65462;52.148;7.940;2023-03-13T03:18:53;99042.81;;;9.06
76583;BMP280;65462;52.148;7.940;2023-03-13T03:21:19;99052.22;;;9.07
76583;BMP280;65462;52.148;7.940;2023-03-13T03:23:45;99045.09;;;9.08
76583;BMP280;65462;52.148;7.940;2023-03-13T03:26:10;99041.78;;;9.11
76583;BMP280;65462;52.148;7.940;2023-03-13T03:28:36;99023.69;;;9.09
76583;BMP280;65462;52.148;7.940;2023-03-13T03:31:05;99016.56;;;9.10
76583;BMP280;65462;52.148;7.940;2023-03-13T03:33:30;99025.19;;;9.10
76583;BMP280;65462;52.148;7.940;2023-03-13T03:36:03;99008.28;;;9.11
76583;BMP280;65462;52.148;7.940;2023-03-13T03:38:29;99008.28;;;9.11
76583;BMP280;65462;52.148;7.940;2023-03-13T03:40:54;99006.09;;;9.13
76583;BMP280;65462;52.148;7.940;2023-03-13T03:43:20;98994.84;;;9.16
76583;BMP280;65462;52.148;7.940;2023-03-13T03:45:45;98993.31;;;9.15
76583;BMP280;65462;52.148;7.940;2023-03-13T03:48:10;98987.34;;;9.18
76583;BMP280;65462;52.148;7.940;2023-03-13T03:50:35;98963.72;;;9.22
76583;BMP280;65462;52.148;7.940;2023-03-13T03:53:01;98950.19;;;9.23
76583;BMP280;65462;52.148;7.940;2023-03-13T03:55:26;98947.97;;;9.25
76583;BMP280;65462;52.148;7.940;2023-03-13T03:57:51;98940.47;;;9.27
76583;BMP280;65462;52.148;7.940;2023-03-13T04:00:17;98937.13;;;9.30
76583;BMP280;65462;52.148;7.940;2023-03-13T04:02:43;98928.50;;;9.33
76583;BMP280;65462;52.148;7.940;2023-03-13T04:05:09;98925.88;;;9.33
76583;BMP280;65462;52.148;7.940;2023-03-13T04:07:34;98922.56;;;9.36
76583;BMP280;65462;52.148;7.940;2023-03-13T04:10:00;98922.22;;;9.38
76583;BMP280;65462;52.148;7.940;2023-03-13T04:12:25;98916.19;;;9.37
76583;BMP280;65462;52.148;7.940;2023-03-13T04:14:50;98897.81;;;9.41
76583;BMP280;65462;52.148;7.940;2023-03-13T04:17:16;98889.13;;;9.40
76583;BMP280;65462;52.148;7.940;2023-03-13T04:19:41;98895.22;;;9.44
76583;BMP280;65462;52.148;7.940;2023-03-13T04:22:06;98886.22;;;9.45
76583;BMP280;65462;52.148;7.940;2023-03-13T04:24:32;98884.75;;;9.48
76583;BMP280;65462;52.148;7.940;2023-03-13T04:26:57;98889.66;;;9.49
76583;BMP280;65462;52.148;7.940;2023-03-13T04:29:23;98889.31;;;9.51
76583;BMP280;65462;52.148;7.940;2023-03-13T04:31:48;98879.50;;;9.51
76583;BMP280;65462;52.148;7.940;2023-03-13T04:34:14;98868.59;;;9.53
76583;BMP280;65462;52.148;7.940;2023-03-13T04:36:39;98866.34;;;9.51
76583;BMP280;65462;52.148;7.940;2023-03-13T04:39:04;98852.84;;;9.56
76583;BMP280;65462;52.148;7.940;2023-03-13T04:41:30;98851.00;;;9.57
76583;BMP280;65462;52.148;7.940;2023-03-13T04:43:55;98847.63;;;9.60
76583;BMP280;65462;52.148;7.940;2023-03-13T04:46:20;98832.56;;;9.60
76583;BMP280;65462;52.148;7.940;2023-03-13T04:48:45;98833.75;;;9.63
76583;BMP280;65462;52.148;7.940;2023-03-13T04:51:11;98826.31;;;9.69
76583;BMP280;65462;52.148;7.940;2023-03-13T04:53:37;98825.56;;;9.68
76583;BMP280;65462;52.148;7.940;2023-03-13T04:56:02;98821.44;;;9.71
76583;BMP280;65462;52.148;7.940;2023-03-13T04:58:28;98804.53;;;9.75
76583;BMP280;65462;52.148;7.940;2023-03-13T05:00:53;98809.47;;;9.77
76583;BMP280;65462;52.148;7.940;2023-03-13T05:03:19;98802.38;;;9.81
76583;BMP280;65462;52.148;7.940;2023-03-13T05:05:44;98806.16;;;9.83
76583;BMP280;65462;52.148;7.940;2023-03-13T05:08:11;98807.34;;;9.86
76583;BMP280;65462;52.148;7.940;2023-03-13T05:10:36;98783.69;;;9.93
76583;BMP280;65462;52.148;7.940;2023-03-13T05:13:01;98788.22;;;9.96
76583;BMP280;65462;52.148;7.940;2023-03-13T05:15:27;98780.72;;;9.98
76583;BMP280;65462;52.148;7.940;2023-03-13T05:17:52;98772.09;;;10.01
76583;BMP280;65462;52.148;7.940;2023-03-13T05:20:17;98779.59;;;9.99
76583;BMP280;65462;52.148;7.940;2023-03-13T05:22:42;98762.72;;;10.07
76583;BMP280;65462;52.148;7.940;2023-03-13T05:25:08;98760.50;;;10.09
76583;BMP280;65462;52.148;7.940;2023-03-13T05:27:33;98758.22;;;10.07
76583;BMP280;65462;52.148;7.940;2023-03-13T05:29:59;98748.44;;;10.08
76583;BMP280;65462;52.148;7.940;2023-03-13T05:32:24;98754.53;;;10.12
76583;BMP280;65462;52.148;7.940;2023-03-13T05:34:49;98738.75;;;10.19
76583;BMP280;65462;52.148;7.940;2023-03-13T05:37:15;98736.50;;;10.21
76583;BMP280;65462;52.148;7.940;2023-03-13T05:39:40;98744.41;;;10.21
76583;BMP280;65462;52.148;7.940;2023-03-13T05:42:05;98736.50;;;10.21
76583;BMP280;65462;52.148;7.940;2023-03-13T05:44:30;98737.31;;;10.25
76583;BMP280;65462;52.148;7.940;2023-03-13T05:46:56;98722.59;;;10.24
76583;BMP280;65462;52.148;7.940;2023-03-13T05:49:21;98712.44;;;10.29
76583;BMP280;65462;52.148;7.940;2023-03-13T05:51:46;98727.16;;;10.30
76583;BMP280;65462;52.148;7.940;2023-03-13T05:54:12;98711.78;;;10.36
76583;BMP280;65462;52.148;7.940;2023-03-13T05:56:37;98715.91;;;10.37
76583;BMP280;65462;52.148;7.940;2023-03-13T05:59:02;98718.94;;;10.39
76583;BMP280;65462;52.148;7.940;2023-03-13T06:01:28;98718.66;;;10.44
76583;BMP280;65462;52.148;7.940;2023-03-13T06:03:53;98723.19;;;10.47
76583;BMP280;65462;52.148;7.940;2023-03-13T06:06:18;98727.75;;;10.50
76583;BMP280;65462;52.148;7.940;2023-03-13T06:08:43;98724.75;;;10.55
76583;BMP280;65462;52.148;7.940;2023-03-13T06:11:09;98710.50;;;10.63
76583;BMP280;65462;52.148;7.940;2023-03-13T06:13:34;98708.25;;;10.65
76583;BMP280;65462;52.148;7.940;2023-03-13T06:15:59;98714.31;;;10.69
76583;BMP280;65462;52.148;7.940;2023-03-13T06:18:25;98706.44;;;10.73
76583;BMP280;65462;52.148;7.940;2023-03-13T06:20:56;98710.63;;;10.77
76583;BMP280;65462;52.148;7.940;2023-03-13T06:23:21;98708.69;;;10.78
76583;BMP280;65462;52.148;7.940;2023-03-13T06:25:47;98698.19;;;10.81
76583;BMP280;65462;52.148;7.940;2023-03-13T06:28:12;98704.66;;;10.84
76583;BMP280;65462;52.148;7.940;2023-03-13T06:30:37;98711.44;;;10.88
76583;BMP280;65462;52.148;7.940;2023-03-13T06:33:03;98709.19;;;10.87
76583;BMP280;65462;52.148;7.940;2023-03-13T06:35:28;98714.50;;;10.90
76583;BMP280;65462;52.148;7.940;2023-03-13T06:37:53;98708.06;;;10.91
76583;BMP280;65462;52.148;7.940;2023-03-13T06:40:19;98706.91;;;10.89
76583;BMP280;65462;52.148;7.940;2023-03-13T06:42:44;98700.47;;;10.86
76583;BMP280;65462;52.148;7.940;2023-03-13T06:45:09;98707.69;;;10.89
76583;BMP280;65462;52.148;7.940;2023-03-13T06:47:35;98707.31;;;10.94
76583;BMP280;65462;52.148;7.940;2023-03-13T06:50:00;98715.28;;;10.98
76583;BMP280;65462;52.148;7.940;2023-03-13T06:52:25;98701.31;;;10.97
76583;BMP280;65462;52.148;7.940;2023-03-13T06:54:51;98700.59;;;11.00
76583;BMP280;65462;52.148;7.940;2023-03-13T06:57:16;98699.13;;;11.07
76583;BMP280;65462;52.148;7.940;2023-03-13T06:59:41;98698.75;;;11.12
76583;BMP280;65462;52.148;7.940;2023-03-13T07:02:09;98697.22;;;11.11
76583;BMP280;65462;52.148;7.940;2023-03-13T07:04:35;98702.19;;;11.16
76583;BMP280;65462;52.148;7.940;2023-03-13T07:07:00;98718.47;;;11.25
76583;BMP280;65462;52.148;7.940;2023-03-13T07:09:25;98703.41;;;11.32
76583;BMP280;65462;52.148;7.940;2023-03-13T07:11:51;98710.94;;;11.34
76583;BMP280;65462;52.148;7.940;2023-03-13T07:14:16;98708.69;;;11.36
76583;BMP280;65462;52.148;7.940;2023-03-13T07:16:41;98711.34;;;11.39
76583;BMP280;65462;52.148;7.940;2023-03-13T07:19:07;98712.09;;;11.40
76583;BMP280;65462;52.148;7.940;2023-03-13T07:21:32;98714.75;;;11.40
76583;BMP280;65462;52.148;7.940;2023-03-13T07:23:57;98716.28;;;11.41
76583;BMP280;65462;52.148;7.940;2023-03-13T07:26:23;98717.81;;;11.42
76583;BMP280;65462;52.148;7.940;2023-03-13T07:28:48;98710.25;;;11.44
76583;BMP280;65462;52.148;7.940;2023-03-13T07:31:15;98708.72;;;11.43
76583;BMP280;65462;52.148;7.940;2023-03-13T07:33:41;98702.31;;;11.44
76583;BMP280;65462;52.148;7.940;2023-03-13T07:36:07;98711.78;;;11.52
76583;BMP280;65462;52.148;7.940;2023-03-13T07:38:33;98687.22;;;11.48
76583;BMP280;65462;52.148;7.940;2023-03-13T07:40:59;98692.91;;;11.50
76583;BMP280;65462;52.148;7.940;2023-03-13T07:43:24;98683.06;;;11.47
76583;BMP280;65462;52.148;7.940;2023-03-13T07:45:58;98674.78;;;11.48
76583;BMP280;65462;52.148;7.940;2023-03-13T07:48:27;98669.47;;;11.52
76583;BMP280;65462;52.148;7.940;2023-03-13T07:50:54;98672.13;;;11.52
76583;BMP280;65462;52.148;7.940;2023-03-13T07:53:19;98668.38;;;11.53
76583;BMP280;65462;52.148;7.940;2023-03-13T07:55:54;98656.66;;;11.57
76583;BMP280;65462;52.148;7.940;2023-03-13T07:58:21;98673.31;;;11.58
76583;BMP280;65462;52.148;7.940;2023-03-13T08:00:46;98671.03;;;11.60
76583;BMP280;65462;52.148;7.940;2023-03-13T08:03:12;98657.84;;;11.67
76583;BMP280;65462;52.148;7.940;2023-03-13T08:05:37;98665.78;;;11.67
76583;BMP280;65462;52.148;7.940;2023-03-13T08:08:02;98675.59;;;11.70
76583;BMP280;65462;52.148;7.940;2023-03-13T08:10:27;98672.56;;;11.71
76583;BMP280;65462;52.148;7.940;2023-03-13T08:12:54;98668.44;;;11.74
76583;BMP280;65462;52.148;7.940;2023-03-13T08:15:19;98671.44;;;11.76
76583;BMP280;65462;52.148;7.940;2023-03-13T08:17:49;98669.97;;;11.82
76583;BMP280;65462;52.148;7.940;2023-03-13T08:20:15;98672.97;;;11.84
76583;BMP280;65462;52.148;7.940;2023-03-13T08:22:43;98677.91;;;11.93
76583;BMP280;65462;52.148;7.940;2023-03-13T08:25:08;98685.91;;;12.03
76583;BMP280;65462;52.148;7.940;2023-03-13T08:27:33;98708.53;;;12.01
76583;BMP280;65462;52.148;7.940;2023-03-13T08:29:59;98720.66;;;12.05
76583;BMP280;65462;52.148;7.940;2023-03-13T08:32:24;98728.25;;;12.03
76583;BMP280;65462;52.148;7.940;2023-03-13T08:34:49;98741.81;;;12.05
76583;BMP280;65462;52.148;7.940;2023-03-13T08:37:15;98730.13;;;12.13
76583;BMP280;65462;52.148;7.940;2023-03-13T08:39:40;98734.66;;;12.16
76583;BMP280;65462;52.148;7.940;2023-03-13T08:42:07;98726.38;;;12.18
76583;BMP280;65462;52.148;7.940;2023-03-13T08:44:32;98756.59;;;12.20
76583;BMP280;65462;52.148;7.940;2023-03-13T08:46:57;98745.28;;;12.23
76583;BMP280;65462;52.148;7.940;2023-03-13T08:49:24;98749.81;;;12.19
76583;BMP280;65462;52.148;7.940;2023-03-13T08:51:49;98758.16;;;12.28
76583;BMP280;65462;52.148;7.940;2023-03-13T08:54:14;98761.94;;;12.34
76583;BMP280;65462;52.148;7.940;2023-03-13T08:56:40;98765.72;;;12.33
76583;BMP280;65462;52.148;7.940;2023-03-13T08:59:07;98767.63;;;12.36
76583;BMP280;65462;52.148;7.940;2023-03-13T09:01:34;98777.09;;;12.37
76583;BMP280;65462;52.148;7.940;2023-03-13T09:04:00;98786.53;;;12.31
76583;BMP280;65462;52.148;7.940;2023-03-13T09:06:26;98776.28;;;12.33
76583;BMP280;65462;52.148;7.940;2023-03-13T09:08:51;98772.91;;;12.36
76583;BMP280;65462;52.148;7.940;2023-03-13T09:11:18;98786.56;;;12.38
76583;BMP280;65462;52.148;7.940;2023-03-13T09:13:46;98764.97;;;12.36
76583;BMP280;65462;52.148;7.940;2023-03-13T09:16:14;98777.09;;;12.44
76583;BMP280;65462;52.148;7.940;2023-03-13T09:18:40;98793.34;;;12.54
76583;BMP280;65462;52.148;7.940;2023-03-13T09:21:08;98784.66;;;12.57
76583;BMP280;65462;52.148;7.940;2023-03-13T09:23:34;98790.72;;;12.57
76583;BMP280;65462;52.148;7.940;2023-03-13T09:25:59;98783.91;;;12.63
76583;BMP280;65462;52.148;7.940;2023-03-13T09:28:25;98782.03;;;12.64
76583;BMP280;65462;52.148;7.940;2023-03-13T09:30:50;98796.41;;;12.63
76583;BMP280;65462;52.148;7.940;2023-03-13T09:33:16;98793.00;;;12.73
76583;BMP280;65462;52.148;7.940;2023-03-13T09:35:41;98785.44;;;12.82
76583;BMP280;65462;52.148;7.940;2023-03-13T09:38:07;98781.66;;;12.83
76583;BMP280;65462;52.148;7.940;2023-03-13T09:40:40;98777.47;;;12.89
76583;BMP280;65462;52.148;7.940;2023-03-13T09:43:18;98780.16;;;12.99
76583;BMP280;65462;52.148;7.940;2023-03-13T09:45:46;98779.38;;;13.06
76583;BMP280;65462;52.148;7.940;2023-03-13T09:48:36;98766.84;;;13.17
76583;BMP280;65462;52.148;7.940;2023-03-13T09:51:10;98761.53;;;13.31
76583;BMP280;65462;52.148;7.940;2023-03-13T09:53:41;98781.19;;;13.44
76583;BMP280;65462;52.148;7.940;2023-03-13T09:56:13;98783.81;;;13.55
76583;BMP280;65462;52.148;7.940;2023-03-13T09:58:45;98789.03;;;13.65
76583;BMP280;65462;52.148;7.940;2023-03-13T10:01:16;98792.09;;;13.67
76583;BMP280;65462;52.148;7.940;2023-03-13T10:03:59;98800.03;;;13.71
76583;BMP280;65462;52.148;7.940;2023-03-13T10:06:26;98794.31;;;13.76
76583;BMP280;65462;52.148;7.940;2023-03-13T10:08:52;98784.81;;;13.82
76583;BMP280;65462;52.148;7.940;2023-03-13T10:11:41;98790.13;;;13.78
76583;BMP280;65462;52.148;7.940;2023-03-13T10:14:17;98810.25;;;13.76
76583;BMP280;65462;52.148;7.940;2023-03-13T10:17:00;98806.78;;;13.82
76583;BMP280;65462;52.148;7.940;2023-03-13T10:19:34;98804.91;;;13.83
76583;BMP280;65462;52.148;7.940;2023-03-13T10:22:03;98811.34;;;13.85
76583;BMP280;65462;52.148;7.940;2023-03-13T10:25:25;98791.66;;;13.79
76583;BMP280;65462;52.148;7.940;2023-03-13T10:27:27;98784.44;;;13.87
76583;BMP280;65462;52.148;7.940;2023-03-13T10:29:52;98789.69;;;13.94
76583;BMP280;65462;52.148;7.940;2023-03-13T10:32:18;98795.72;;;14.01
76583;BMP280;65462;52.148;7.940;2023-03-13T10:34:59;98790.75;;;14.07
76583;BMP280;65462;52.148;7.940;2023-03-13T10:37:31;98799.00;;;14.20
76583;BMP280;65462;52.148;7.940;2023-03-13T10:42:41;98789.41;;;14.40
76583;BMP280;65462;52.148;7.940;2023-03-13T10:45:14;98822.06;;;14.40
76583;BMP280;65462;52.148;7.940;2023-03-13T10:47:40;98779.06;;;14.52
76583;BMP280;65462;52.148;7.940;2023-03-13T10:50:05;98780.53;;;14.64
76583;BMP280;65462;52.148;7.940;2023-03-13T10:52:41;98783.06;;;14.74
76583;BMP280;65462;52.148;7.940;2023-03-13T10:55:12;98782.53;;;14.90
76583;BMP280;65462;52.148;7.940;2023-03-13T10:57:40;98782.81;;;15.03
76583;BMP280;65462;52.148;7.940;2023-03-13T11:00:33;98774.28;;;15.18
76583;BMP280;65462;52.148;7.940;2023-03-13T11:03:01;98753.59;;;15.33
76583;BMP280;65462;52.148;7.940;2023-03-13T11:05:38;98771.38;;;15.39
76583;BMP280;65462;52.148;7.940;2023-03-13T11:11:17;98764.72;;;15.54
76583;BMP280;65462;52.148;7.940;2023-03-13T11:13:43;98757.03;;;15.63
76583;BMP280;65462;52.148;7.940;2023-03-13T11:16:19;98766.63;;;15.57
76583;BMP280;65462;52.148;7.940;2023-03-13T11:21:32;98755.25;;;15.53
76583;BMP280;65462;52.148;7.940;2023-03-13T11:24:07;98754.50;;;15.53
76583;BMP280;65462;52.148;7.940;2023-03-13T11:26:41;98749.22;;;15.49
76583;BMP280;65462;52.148;7.940;2023-03-13T11:29:27;98727.28;;;15.38
76583;BMP280;65462;52.148;7.940;2023-03-13T11:31:59;98742.91;;;15.36
76583;BMP280;65462;52.148;7.940;2023-03-13T11:34:39;98737.06;;;15.45
76583;BMP280;65462;52.148;7.940;2023-03-13T11:37:12;98745.69;;;15.56
76583;BMP280;65462;52.148;7.940;2023-03-13T11:56:26;98713.72;;;15.59
76583;BMP280;65462;52.148;7.940;2023-03-13T12:01:50;98687.63;;;15.74
76583;BMP280;65462;52.148;7.940;2023-03-13T12:04:28;98673.13;;;15.79
76583;BMP280;65462;52.148;7.940;2023-03-13T12:07:03;98674.09;;;15.88
76583;BMP280;65462;52.148;7.940;2023-03-13T12:09:36;98678.53;;;15.98
76583;BMP280;65462;52.148;7.940;2023-03-13T12:12:33;98684.94;;;16.01
76583;BMP280;65462;52.148;7.940;2023-03-13T12:15:04;98667.44;;;16.00
76583;BMP280;65462;52.148;7.940;2023-03-13T12:17:37;98679.47;;;16.11
76583;BMP280;65462;52.148;7.940;2023-03-13T12:20:07;98664.91;;;16.16
76583;BMP280;65462;52.148;7.940;2023-03-13T12:22:45;98664.34;;;16.28
76583;BMP280;65462;52.148;7.940;2023-03-13T12:25:37;98648.44;;;16.44
76583;BMP280;65462;52.148;7.940;2023-03-13T12:28:15;98644.16;;;16.50
76583;BMP280;65462;52.148;7.940;2023-03-13T12:30:47;98640.31;;;16.51
76583;BMP280;65462;52.148;7.940;2023-03-13T12:35:57;98647.09;;;16.55
76583;BMP280;65462;52.148;7.940;2023-03-13T12:38:38;98645.19;;;16.56
76583;BMP280;65462;52.148;7.940;2023-03-13T12:41:29;98627.38;;;16.69
76583;BMP280;65462;52.148;7.940;2023-03-13T12:43:56;98611.19;;;16.80
76583;BMP280;65462;52.148;7.940;2023-03-13T12:49:38;98615.44;;;16.93
76583;BMP280;65462;52.148;7.940;2023-03-13T12:55:06;98610.34;;;17.18
76583;BMP280;65462;52.148;7.940;2023-03-13T13:00:27;98597.03;;;17.34
76583;BMP280;65462;52.148;7.940;2023-03-13T13:03:14;98593.69;;;17.30
76583;BMP280;65462;52.148;7.940;2023-03-13T13:05:58;98583.06;;;17.27
76583;BMP280;65462;52.148;7.940;2023-03-13T13:08:25;98589.16;;;17.27
76583;BMP280;65462;52.148;7.940;2023-03-13T13:10:50;98590.66;;;17.28
76583;BMP280;65462;52.148;7.940;2023-03-13T13:13:27;98587.25;;;17.28
76583;BMP280;65462;52.148;7.940;2023-03-13T13:16:05;98591.50;;;17.25
76583;BMP280;65462;52.148;7.940;2023-03-13T13:18:33;98582.47;;;17.19
76583;BMP280;65462;52.148;7.940;2023-03-13T13:25:54;98578.44;;;17.31
76583;BMP280;65462;52.148;7.940;2023-03-13T13:28:24;98568.66;;;17.40
76583;BMP280;65462;52.148;7.940;2023-03-13T13:30:52;98589.03;;;17.51
76583;BMP280;65462;52.148;7.940;2023-03-13T13:38:33;98578.50;;;17.60
76583;BMP280;65462;52.148;7.940;2023-03-13T13:43:38;98576.16;;;17.45
76583;BMP280;65462;52.148;7.940;2023-03-13T13:48:38;98576.47;;;17.31
76583;BMP280;65462;52.148;7.940;2023-03-13T13:53:48;98583.66;;;17.18
76583;BMP280;65462;52.148;7.940;2023-03-13T13:58:58;98564.63;;;17.32
76583;BMP280;65462;52.148;7.940;2023-03-13T14:01:23;98560.03;;;17.49
76583;BMP280;65462;52.148;7.940;2023-03-13T14:03:50;98571.13;;;17.64
76583;BMP280;65462;52.148;7.940;2023-03-13T14:06:20;98563.19;;;17.76
76583;BMP280;65462;52.148;7.940;2023-03-13T14:08:53;98575.09;;;17.88
76583;BMP280;65462;52.148;7.940;2023-03-13T14:11:32;98569.50;;;17.98
76583;BMP280;65462;52.148;7.940;2023-03-13T14:14:15;98570.97;;;17.99
76583;BMP280;65462;52.148;7.940;2023-03-13T14:16:45;98575.16;;;18.00
76583;BMP280;65462;52.148;7.940;2023-03-13T14:19:34;98571.13;;;18.08
76583;BMP280;65462;52.148;7.940;2023-03-13T14:22:10;98563.75;;;18.12
76583;BMP280;65462;52.148;7.940;2023-03-13T14:24:39;98558.09;;;18.10
76583;BMP280;65462;52.148;7.940;2023-03-13T14:27:15;98541.38;;;18.06
76583;BMP280;65462;52.148;7.940;2023-03-13T14:29:41;98563.41;;;17.98
76583;BMP280;65462;52.148;7.940;2023-03-13T14:32:07;98549.53;;;17.87
76583;BMP280;65462;52.148;7.940;2023-03-13T14:34:32;98543.72;;;17.76
76583;BMP280;65462;52.148;7.940;2023-03-13T14:36:59;98540.91;;;17.67
76583;BMP280;65462;52.148;7.940;2023-03-13T14:39:42;98535.50;;;17.54
76583;BMP280;65462;52.148;7.940;2023-03-13T14:42:15;98537.25;;;17.44
76583;BMP280;65462;52.148;7.940;2023-03-13T14:44:41;98540.13;;;17.37
76583;BMP280;65462;52.148;7.940;2023-03-13T14:47:27;98528.00;;;17.33
76583;BMP280;65462;52.148;7.940;2023-03-13T14:49:59;98526.34;;;17.23
76583;BMP280;65462;52.148;7.940;2023-03-13T14:52:27;98525.28;;;17.20
76583;BMP280;65462;52.148;7.940;2023-03-13T14:54:58;98521.84;;;17.20
76583;BMP280;65462;52.148;7.940;2023-03-13T14:57:26;98525.03;;;17.15
76583;BMP280;65462;52.148;7.940;2023-03-13T14:59:52;98510.56;;;17.12
76583;BMP280;65462;52.148;7.940;2023-03-13T15:02:29;98493.56;;;17.06
76583;BMP280;65462;52.148;7.940;2023-03-13T15:05:05;98495.25;;;17.00
76583;BMP280;65462;52.148;7.940;2023-03-13T15:07:46;98483.91;;;16.96
76583;BMP280;65462;52.148;7.940;2023-03-13T15:10:22;98486.75;;;16.89
76583;BMP280;65462;52.148;7.940;2023-03-13T15:12:48;98481.50;;;16.86
76583;BMP280;65462;52.148;7.940;2023-03-13T15:15:14;98472.72;;;16.85
76583;BMP280;65462;52.148;7.940;2023-03-13T15:17:39;98474.31;;;16.83
76583;BMP280;65462;52.148;7.940;2023-03-13T15:20:05;98468.63;;;16.81
76583;BMP280;65462;52.148;7.940;2023-03-13T15:22:35;98475.88;;;16.80
76583;BMP280;65462;52.148;7.940;2023-03-13T15:25:02;98475.44;;;16.82
76583;BMP280;65462;52.148;7.940;2023-03-13T15:27:28;98468.03;;;16.73
76583;BMP280;65462;52.148;7.940;2023-03-13T15:29:53;98460.03;;;16.73
76583;BMP280;65462;52.148;7.940;2023-03-13T15:32:26;98450.53;;;16.72